Time;durP1;ratioP1;P1;durP2;ratioP2;P2;SDS_P1;SDS_P2;PMS_P1;PMS_P2;Temp;Humidity;BMP_temperature;BMP_pressure;BME280_temperature;BME280_humidity;BME280_pressure;Samples;Min_cycle;Max_cycle;Signal;HPM_P1;HPM_P2
2022/04/08 00:02:00;;;;;;;8.30;1.50;;;6.40;99.90;;;;;;5065065;28;20041;-50
2022/04/08 00:04:25;;;;;;;8.60;1.20;;;6.50;99.90;;;;;;5051712;28;20116;-50
2022/04/08 00:06:51;;;;;;;4.82;1.00;;;6.50;99.90;;;;;;5051394;28;20473;-50
2022/04/08 00:09:16;;;;;;;6.88;1.05;;;6.40;99.90;;;;;;5051668;28;20041;-50
2022/04/08 00:11:42;;;;;;;3.33;0.98;;;6.40;99.90;;;;;;5054638;28;20264;-49
2022/04/08 00:14:07;;;;;;;5.97;1.15;;;6.30;99.90;;;;;;5059982;28;20097;-50
2022/04/08 00:16:33;;;;;;;4.95;1.10;;;6.30;99.90;;;;;;5051462;28;20126;-49
2022/04/08 00:18:59;;;;;;;7.28;1.50;;;6.20;99.90;;;;;;5051312;28;20599;-54
2022/04/08 00:21:25;;;;;;;5.95;1.20;;;6.20;99.90;;;;;;5050728;28;20040;-51
2022/04/08 00:23:52;;;;;;;5.22;1.23;;;6.20;99.90;;;;;;5050383;28;20041;-51
2022/04/08 00:26:17;;;;;;;6.88;1.27;;;6.10;99.90;;;;;;5058784;28;20059;-50
2022/04/08 00:28:43;;;;;;;7.90;1.20;;;6.10;99.90;;;;;;5059978;28;20033;-52
2022/04/08 00:31:08;;;;;;;11.00;1.83;;;6.10;99.90;;;;;;5061975;28;20072;-50
2022/04/08 00:33:34;;;;;;;8.27;1.20;;;6.00;99.90;;;;;;5050391;28;20124;-50
2022/04/08 00:36:00;;;;;;;8.50;1.73;;;6.00;99.90;;;;;;5050999;28;20503;-49
2022/04/08 00:38:26;;;;;;;3.13;1.10;;;6.00;99.90;;;;;;5051472;28;20049;-52
2022/04/08 00:40:51;;;;;;;4.25;1.02;;;5.90;99.90;;;;;;5051447;28;20072;-53
2022/04/08 00:43:19;;;;;;;5.80;1.30;;;5.80;99.90;;;;;;5050678;28;20037;-52
2022/04/08 00:45:46;;;;;;;4.03;1.10;;;5.70;99.90;;;;;;5051124;28;20039;-49
2022/04/08 00:48:12;;;;;;;3.78;0.90;;;5.70;99.90;;;;;;5058205;28;20033;-49
2022/04/08 00:50:39;;;;;;;4.30;0.95;;;5.60;99.90;;;;;;5066946;28;20090;-50
2022/04/08 00:53:06;;;;;;;6.53;1.38;;;5.60;99.90;;;;;;5058813;28;20531;-50
2022/04/08 00:55:33;;;;;;;5.90;1.10;;;5.50;99.90;;;;;;5055501;28;20029;-52
2022/04/08 00:58:02;;;;;;;7.07;1.25;;;5.60;99.90;;;;;;5055166;28;20052;-50
2022/04/08 01:00:31;;;;;;;4.80;0.85;;;5.50;99.90;;;;;;5054987;28;20460;-52
2022/04/08 01:02:57;;;;;;;4.15;0.80;;;5.50;99.90;;;;;;5054325;28;20382;-50
2022/04/08 01:05:23;;;;;;;4.95;0.80;;;5.50;99.90;;;;;;5061390;28;20105;-49
2022/04/08 01:07:48;;;;;;;8.82;1.70;;;5.50;99.90;;;;;;5055080;28;20033;-51
2022/04/08 01:10:14;;;;;;;6.90;1.30;;;5.40;99.90;;;;;;5055214;28;20060;-50
2022/04/08 01:12:39;;;;;;;6.32;1.05;;;5.30;99.90;;;;;;5054314;28;20424;-50
2022/04/08 01:15:05;;;;;;;12.57;1.40;;;5.20;99.90;;;;;;5054841;28;20041;-50
2022/04/08 01:17:31;;;;;;;6.38;1.20;;;5.20;99.90;;;;;;5060462;28;20040;-53
2022/04/08 01:19:56;;;;;;;8.00;1.05;;;5.10;99.90;;;;;;5056982;28;20037;-51
2022/04/08 01:22:23;;;;;;;5.55;1.42;;;5.10;99.90;;;;;;5040597;28;20532;-50
2022/04/08 01:24:56;;;;;;;4.47;1.20;;;5.00;99.90;;;;;;5054859;28;20061;-54
2022/04/08 01:27:22;;;;;;;7.72;1.33;;;5.00;99.90;;;;;;5054572;28;20409;-49
2022/04/08 01:29:47;;;;;;;6.40;1.20;;;5.00;99.90;;;;;;5054794;28;20033;-52
2022/04/08 01:32:14;;;;;;;8.73;1.60;;;5.00;99.90;;;;;;5053687;28;20481;-53
2022/04/08 01:34:40;;;;;;;8.52;1.27;;;4.90;99.90;;;;;;5054063;28;20048;-50
2022/04/08 01:37:05;;;;;;;9.80;1.80;;;4.90;99.90;;;;;;5065103;28;20074;-49
2022/04/08 01:39:31;;;;;;;9.95;1.67;;;4.90;99.90;;;;;;5063455;28;20133;-53
2022/04/08 01:41:57;;;;;;;9.85;1.75;;;4.90;99.90;;;;;;5061996;28;20074;-50
2022/04/08 01:44:22;;;;;;;7.28;1.30;;;4.90;99.90;;;;;;5047607;28;20056;-51
2022/04/08 01:46:48;;;;;;;9.10;1.50;;;4.90;99.90;;;;;;5041658;28;20501;-51
2022/04/08 01:49:13;;;;;;;9.57;1.48;;;4.90;99.90;;;;;;5024048;28;20036;-51
2022/04/08 01:51:39;;;;;;;11.15;1.58;;;4.90;99.90;;;;;;5047638;28;20076;-53
2022/04/08 01:54:05;;;;;;;10.82;1.50;;;4.90;99.90;;;;;;5064791;28;20458;-50
2022/04/08 01:56:30;;;;;;;11.45;1.60;;;4.90;99.90;;;;;;5073901;28;20037;-51
2022/04/08 01:58:56;;;;;;;6.10;1.20;;;4.90;99.90;;;;;;5064155;28;20062;-53
2022/04/08 02:01:21;;;;;;;9.68;1.50;;;4.90;99.90;;;;;;5062052;28;20041;-52
2022/04/08 02:03:46;;;;;;;8.45;1.70;;;4.80;99.90;;;;;;5052969;28;20076;-49
2022/04/08 02:06:12;;;;;;;13.20;1.80;;;4.80;99.90;;;;;;5053813;28;20048;-55
2022/04/08 02:08:39;;;;;;;11.23;1.80;;;4.90;99.90;;;;;;5054122;28;20091;-51
2022/04/08 02:11:04;;;;;;;13.50;2.17;;;4.80;99.90;;;;;;5054026;28;20459;-52
2022/04/08 02:13:30;;;;;;;10.27;1.55;;;4.90;99.90;;;;;;5057955;28;20052;-51
2022/04/08 02:15:55;;;;;;;8.05;1.92;;;4.80;99.90;;;;;;5062900;28;20051;-52
2022/04/08 02:18:21;;;;;;;16.88;1.70;;;4.80;99.90;;;;;;5057900;28;20119;-51
2022/04/08 02:20:46;;;;;;;9.15;1.98;;;4.80;99.90;;;;;;5056384;28;20048;-52
2022/04/08 02:23:12;;;;;;;11.85;1.80;;;4.80;99.90;;;;;;5053185;28;20037;-53
2022/04/08 02:25:37;;;;;;;11.98;2.00;;;4.80;99.90;;;;;;5068168;28;20043;-51
2022/04/08 02:28:04;;;;;;;9.48;1.65;;;4.80;99.90;;;;;;5053984;28;20037;-53
2022/04/08 02:30:30;;;;;;;15.18;1.77;;;4.80;99.90;;;;;;5053518;28;20037;-52
2022/04/08 02:32:57;;;;;;;18.30;2.13;;;4.80;99.90;;;;;;5052246;28;20086;-52
2022/04/08 02:35:23;;;;;;;16.33;2.00;;;4.80;99.90;;;;;;5053395;28;20473;-50
2022/04/08 02:37:48;;;;;;;13.45;1.73;;;4.80;99.90;;;;;;5053376;28;20171;-51
2022/04/08 02:40:14;;;;;;;10.07;1.52;;;4.80;99.90;;;;;;5061034;28;20079;-50
2022/04/08 02:42:40;;;;;;;8.63;1.80;;;4.80;99.90;;;;;;5060553;28;20037;-50
2022/04/08 02:45:05;;;;;;;10.63;1.77;;;4.80;99.90;;;;;;5052848;28;20157;-51
2022/04/08 02:47:31;;;;;;;8.32;1.50;;;4.70;99.90;;;;;;5060463;28;20730;-53
2022/04/08 02:49:57;;;;;;;11.68;2.22;;;4.50;99.90;;;;;;5071815;28;20051;-50
2022/04/08 02:52:22;;;;;;;8.18;1.63;;;4.40;99.90;;;;;;5049019;28;20041;-49
2022/04/08 02:54:48;;;;;;;7.97;1.52;;;4.30;99.90;;;;;;5052223;28;20103;-50
2022/04/08 02:57:13;;;;;;;10.90;1.60;;;4.30;99.90;;;;;;5038263;28;20121;-51
2022/04/08 02:59:38;;;;;;;8.77;1.45;;;4.20;99.90;;;;;;5064532;28;20377;-50
2022/04/08 03:02:04;;;;;;;5.95;1.23;;;4.10;99.90;;;;;;5069223;28;20056;-50
2022/04/08 03:04:30;;;;;;;11.85;1.20;;;4.10;99.90;;;;;;5053177;28;20029;-51
2022/04/08 03:06:55;;;;;;;8.02;1.42;;;4.00;99.90;;;;;;5052765;28;20037;-49
2022/04/08 03:09:21;;;;;;;8.65;1.35;;;4.00;99.90;;;;;;5052944;28;20037;-49
2022/04/08 03:11:47;;;;;;;7.70;1.33;;;3.90;99.90;;;;;;5052480;28;20033;-49
2022/04/08 03:14:13;;;;;;;4.53;1.30;;;4.00;99.90;;;;;;5060685;28;20037;-50
2022/04/08 03:16:38;;;;;;;6.80;1.40;;;4.00;99.90;;;;;;5051474;28;20446;-51
2022/04/08 03:19:04;;;;;;;7.03;2.22;;;3.90;99.90;;;;;;5054870;28;20063;-49
2022/04/08 03:21:30;;;;;;;6.32;1.67;;;3.90;99.90;;;;;;5064348;28;20036;-50
2022/04/08 03:23:56;;;;;;;6.57;1.38;;;4.00;99.90;;;;;;5055055;28;20393;-49
2022/04/08 03:26:22;;;;;;;6.82;1.52;;;4.00;99.90;;;;;;5052385;28;20045;-50
2022/04/08 03:28:49;;;;;;;7.85;1.70;;;4.00;99.90;;;;;;5052877;28;20118;-50
2022/04/08 03:31:14;;;;;;;10.70;1.90;;;4.00;99.90;;;;;;5041686;28;20044;-50
2022/04/08 03:33:40;;;;;;;15.13;1.80;;;4.00;99.90;;;;;;5052780;28;20063;-49
2022/04/08 03:36:06;;;;;;;15.43;2.72;;;4.10;99.90;;;;;;5051899;28;20120;-49
2022/04/08 03:38:32;;;;;;;13.77;2.05;;;4.20;99.90;;;;;;5052314;28;20103;-49
2022/04/08 03:40:57;;;;;;;16.13;3.00;;;4.30;99.90;;;;;;5052304;28;20539;-50
2022/04/08 03:43:23;;;;;;;20.77;3.03;;;4.40;99.90;;;;;;5050131;28;20028;-53
2022/04/08 03:45:48;;;;;;;17.45;2.47;;;4.50;99.90;;;;;;5060975;28;20037;-50
2022/04/08 03:48:14;;;;;;;19.83;2.95;;;4.60;99.90;;;;;;5071868;28;20040;-50
2022/04/08 03:50:40;;;;;;;16.77;2.55;;;4.70;99.90;;;;;;5056418;28;20044;-51
2022/04/08 03:53:09;;;;;;;13.35;2.22;;;4.70;99.90;;;;;;5050375;28;20037;-52
2022/04/08 03:55:35;;;;;;;11.90;2.15;;;4.80;99.90;;;;;;5051979;28;20047;-49
2022/04/08 03:58:00;;;;;;;12.68;2.10;;;4.90;99.90;;;;;;5050655;28;20029;-49
2022/04/08 04:00:26;;;;;;;14.55;2.55;;;4.90;99.90;;;;;;5052202;28;20125;-49
2022/04/08 04:02:52;;;;;;;9.48;2.28;;;4.90;99.90;;;;;;5041537;28;20485;-52
2022/04/08 04:05:17;;;;;;;12.85;2.15;;;4.90;99.90;;;;;;5053708;28;20035;-49
2022/04/08 04:07:43;;;;;;;20.45;3.00;;;4.90;99.90;;;;;;5050577;28;20040;-50
2022/04/08 04:10:08;;;;;;;12.15;1.92;;;4.60;99.90;;;;;;5054417;28;20477;-50
2022/04/08 04:12:34;;;;;;;13.85;2.13;;;4.80;99.90;;;;;;5047110;28;20492;-51
2022/04/08 04:15:00;;;;;;;12.63;1.90;;;4.80;99.90;;;;;;5033697;28;20495;-53
2022/04/08 04:17:27;;;;;;;7.88;2.22;;;4.70;99.90;;;;;;5051471;28;20094;-50
2022/04/08 04:19:53;;;;;;;13.27;2.13;;;4.70;99.90;;;;;;5050167;28;20041;-49
2022/04/08 04:22:19;;;;;;;8.75;2.05;;;4.70;99.90;;;;;;5055632;28;20036;-49
2022/04/08 04:24:45;;;;;;;6.00;1.50;;;4.60;99.90;;;;;;5060511;28;20093;-49
2022/04/08 04:27:10;;;;;;;14.65;1.77;;;4.60;99.90;;;;;;5047003;28;20029;-51
2022/04/08 04:29:36;;;;;;;6.53;2.00;;;4.60;99.90;;;;;;5049823;28;20044;-52
2022/04/08 04:32:03;;;;;;;9.98;2.10;;;4.50;99.90;;;;;;5050416;28;20044;-50
2022/04/08 04:34:29;;;;;;;11.57;1.90;;;4.50;99.90;;;;;;5046108;28;20212;-49
2022/04/08 04:36:54;;;;;;;5.55;1.75;;;4.50;99.90;;;;;;5050297;28;20529;-53
2022/04/08 04:39:20;;;;;;;10.40;1.70;;;4.50;99.90;;;;;;5049358;28;20051;-50
2022/04/08 04:41:45;;;;;;;12.30;1.85;;;4.50;99.90;;;;;;5050918;28;20037;-50
2022/04/08 04:44:11;;;;;;;8.88;1.88;;;4.50;99.90;;;;;;5051247;28;20041;-51
2022/04/08 04:46:36;;;;;;;8.38;1.88;;;4.50;99.90;;;;;;5033681;28;20509;-52
2022/04/08 04:49:02;;;;;;;10.32;1.90;;;4.50;99.90;;;;;;5055713;28;20048;-55
2022/04/08 04:51:30;;;;;;;14.32;2.10;;;4.50;99.90;;;;;;5064030;28;20044;-52
2022/04/08 04:53:58;;;;;;;13.15;1.88;;;4.50;99.90;;;;;;5056919;28;20048;-54
2022/04/08 04:56:25;;;;;;;7.70;2.15;;;4.50;99.90;;;;;;5076358;28;20037;-55
2022/04/08 04:58:51;;;;;;;8.88;2.03;;;4.50;99.90;;;;;;5056103;28;20124;-53
2022/04/08 05:01:16;;;;;;;10.77;1.85;;;4.50;99.90;;;;;;5050251;28;20084;-55
2022/04/08 05:03:42;;;;;;;6.78;1.85;;;4.50;99.90;;;;;;5056227;28;20112;-54
2022/04/08 05:06:07;;;;;;;6.18;1.58;;;4.60;99.90;;;;;;5059822;28;20098;-55
2022/04/08 05:08:33;;;;;;;8.82;2.00;;;4.60;99.90;;;;;;5048799;28;20048;-55
2022/04/08 05:10:59;;;;;;;13.20;2.00;;;4.60;99.90;;;;;;5059272;28;20515;-53
2022/04/08 05:13:25;;;;;;;11.23;2.20;;;4.60;99.90;;;;;;5058635;28;20111;-53
2022/04/08 05:15:50;;;;;;;8.00;1.80;;;4.90;99.90;;;;;;5068737;28;20433;-54
2022/04/08 05:18:16;;;;;;;11.73;2.08;;;4.60;99.90;;;;;;5057529;28;20049;-54
2022/04/08 05:20:42;;;;;;;15.38;2.58;;;4.60;99.90;;;;;;5045594;28;20041;-53
2022/04/08 05:23:07;;;;;;;11.57;2.33;;;4.60;99.90;;;;;;5049696;28;20033;-53
2022/04/08 05:25:33;;;;;;;6.82;1.88;;;4.60;99.90;;;;;;5057998;28;20032;-51
2022/04/08 05:27:58;;;;;;;9.48;1.95;;;4.60;99.90;;;;;;5050168;28;20379;-53
2022/04/08 05:30:24;;;;;;;9.88;1.60;;;4.60;99.90;;;;;;5046003;28;20029;-54
2022/04/08 05:32:50;;;;;;;7.57;1.73;;;4.40;99.90;;;;;;5045663;28;20134;-52
2022/04/08 05:35:18;;;;;;;7.47;1.75;;;4.30;99.90;;;;;;5041439;28;20492;-54
2022/04/08 05:37:47;;;;;;;3.42;1.42;;;4.20;99.90;;;;;;5036899;28;20124;-50
2022/04/08 05:40:17;;;;;;;6.20;1.52;;;4.10;99.90;;;;;;5045367;28;20040;-54
2022/04/08 05:42:47;;;;;;;3.65;1.27;;;4.00;99.90;;;;;;5039636;28;20041;-51
2022/04/08 05:45:18;;;;;;;7.63;1.60;;;3.90;99.90;;;;;;5035091;28;20036;-53
2022/04/08 05:47:47;;;;;;;4.88;1.42;;;3.90;99.90;;;;;;5033918;28;20037;-53
2022/04/08 05:50:13;;;;;;;6.25;1.50;;;3.80;99.90;;;;;;5042810;28;20029;-50
2022/04/08 05:52:39;;;;;;;3.85;1.48;;;3.80;99.90;;;;;;5036828;28;20044;-53
2022/04/08 05:55:05;;;;;;;3.60;1.40;;;3.70;99.90;;;;;;5039594;28;20041;-54
2022/04/08 05:57:36;;;;;;;4.85;1.80;;;3.60;99.90;;;;;;5041255;28;20468;-51
2022/04/08 06:00:03;;;;;;;4.47;1.40;;;3.60;99.90;;;;;;5036615;28;20374;-54
2022/04/08 06:02:29;;;;;;;4.13;1.10;;;3.50;99.90;;;;;;5041346;28;20110;-51
2022/04/08 06:04:54;;;;;;;4.70;1.40;;;3.50;99.90;;;;;;5043414;28;20037;-51
2022/04/08 06:07:23;;;;;;;3.42;1.25;;;3.50;99.90;;;;;;5042230;28;20432;-52
2022/04/08 06:09:49;;;;;;;4.35;1.80;;;3.50;99.90;;;;;;5040122;28;20033;-53
2022/04/08 06:12:14;;;;;;;4.70;1.67;;;3.40;99.90;;;;;;5038658;28;20120;-50
2022/04/08 06:14:40;;;;;;;4.97;1.50;;;3.40;99.90;;;;;;5044937;28;20040;-51
2022/04/08 06:17:05;;;;;;;4.18;1.58;;;3.30;99.90;;;;;;5063303;28;20082;-50
2022/04/08 06:19:31;;;;;;;3.00;1.35;;;3.30;99.90;;;;;;5061388;28;20036;-52
2022/04/08 06:21:56;;;;;;;2.72;1.30;;;3.20;99.90;;;;;;5054714;28;20033;-52
2022/04/08 06:24:21;;;;;;;1.83;1.40;;;3.30;99.90;;;;;;5031287;28;20485;-53
2022/04/08 06:26:47;;;;;;;3.05;1.20;;;3.30;99.90;;;;;;5027581;28;20045;-51
2022/04/08 06:29:12;;;;;;;4.60;1.40;;;3.30;99.90;;;;;;5041810;28;20069;-51
2022/04/08 06:31:38;;;;;;;4.25;1.50;;;3.30;99.90;;;;;;5033874;28;20041;-52
2022/04/08 06:34:04;;;;;;;6.20;1.58;;;3.30;99.90;;;;;;5040419;28;20582;-52
2022/04/08 06:36:29;;;;;;;4.00;1.55;;;3.40;99.90;;;;;;5053285;28;20489;-51
2022/04/08 06:38:55;;;;;;;4.47;1.60;;;3.50;99.90;;;;;;5053766;28;20489;-53
2022/04/08 06:41:21;;;;;;;4.47;1.38;;;3.50;99.90;;;;;;5053739;28;20397;-52
2022/04/08 06:43:47;;;;;;;5.82;1.45;;;3.60;99.90;;;;;;5052526;28;20493;-53
2022/04/08 06:46:12;;;;;;;5.97;1.58;;;3.60;99.90;;;;;;5053382;28;20126;-53
2022/04/08 06:48:38;;;;;;;2.60;1.23;;;3.60;99.90;;;;;;5053387;28;20037;-51
2022/04/08 06:51:04;;;;;;;2.88;1.20;;;3.60;99.90;;;;;;5052411;28;20493;-50
2022/04/08 06:53:30;;;;;;;3.92;1.20;;;3.60;99.90;;;;;;5053486;28;20086;-52
2022/04/08 06:55:56;;;;;;;6.18;1.40;;;3.60;99.90;;;;;;5053561;28;20048;-53
2022/04/08 06:58:26;;;;;;;2.72;1.13;;;3.70;99.90;;;;;;5052959;28;20041;-51
2022/04/08 07:00:54;;;;;;;5.30;1.30;;;3.70;99.90;;;;;;5052351;28;20505;-51
2022/04/08 07:03:20;;;;;;;3.70;1.30;;;3.80;99.90;;;;;;5053159;28;20037;-53
2022/04/08 07:05:46;;;;;;;5.93;1.48;;;3.80;99.90;;;;;;5053199;28;20040;-53
2022/04/08 07:08:12;;;;;;;6.13;1.40;;;3.90;99.90;;;;;;5053120;28;20069;-51
2022/04/08 07:10:40;;;;;;;3.40;1.42;;;4.10;99.90;;;;;;5052762;28;20444;-51
2022/04/08 07:13:09;;;;;;;5.93;1.80;;;4.20;99.90;;;;;;5035348;28;20068;-53
2022/04/08 07:15:34;;;;;;;4.10;1.70;;;4.30;99.90;;;;;;5053066;28;20094;-51
2022/04/08 07:18:03;;;;;;;3.40;1.67;;;4.40;99.90;;;;;;5051602;28;20041;-53
2022/04/08 07:20:28;;;;;;;5.93;1.80;;;4.40;99.90;;;;;;5053042;28;20041;-52
2022/04/08 07:22:54;;;;;;;5.18;1.80;;;4.30;99.90;;;;;;5052668;28;20523;-51
2022/04/08 07:25:20;;;;;;;5.93;2.00;;;4.30;99.90;;;;;;5052637;28;20044;-50
2022/04/08 07:27:50;;;;;;;4.75;1.83;;;4.30;99.90;;;;;;5050841;28;20040;-52
2022/04/08 07:30:19;;;;;;;8.95;2.13;;;4.30;99.90;;;;;;5052521;28;20093;-52
2022/04/08 07:32:46;;;;;;;4.75;1.98;;;4.20;99.90;;;;;;5045967;28;20037;-55
2022/04/08 07:35:11;;;;;;;4.85;2.10;;;4.20;99.90;;;;;;5051748;28;20405;-53
2022/04/08 07:37:38;;;;;;;5.13;2.28;;;4.20;99.90;;;;;;5052528;28;20032;-54
2022/04/08 07:40:08;;;;;;;7.25;2.40;;;4.20;99.90;;;;;;5051873;28;20077;-55
2022/04/08 07:42:34;;;;;;;5.20;2.13;;;4.20;99.90;;;;;;5052646;28;20115;-53
2022/04/08 07:45:00;;;;;;;5.40;2.08;;;4.10;99.90;;;;;;5034615;28;20108;-55
2022/04/08 07:47:29;;;;;;;4.78;1.90;;;4.10;99.90;;;;;;5051993;28;20044;-52
2022/04/08 07:49:58;;;;;;;6.43;2.30;;;4.20;99.90;;;;;;5052391;28;20033;-52
2022/04/08 07:52:25;;;;;;;9.25;2.55;;;4.20;99.90;;;;;;5051366;28;20048;-51
2022/04/08 07:54:51;;;;;;;4.45;2.30;;;4.30;99.90;;;;;;5052361;28;20080;-52
2022/04/08 07:57:17;;;;;;;4.53;2.38;;;4.30;99.90;;;;;;5047984;28;20040;-52
2022/04/08 07:59:43;;;;;;;8.73;2.33;;;4.30;99.90;;;;;;5051903;28;20037;-53
2022/04/08 08:02:08;;;;;;;6.50;2.35;;;4.30;99.90;;;;;;5051927;28;20140;-54
2022/04/08 08:04:34;;;;;;;6.65;2.35;;;4.40;99.90;;;;;;5052157;28;20072;-53
2022/04/08 08:06:59;;;;;;;3.75;2.35;;;4.40;99.90;;;;;;5051850;28;20044;-50
2022/04/08 08:09:25;;;;;;;5.90;2.40;;;4.40;99.90;;;;;;5051342;28;20041;-53
2022/04/08 08:11:51;;;;;;;7.45;2.70;;;4.30;99.90;;;;;;5051903;28;20044;-51
2022/04/08 08:14:16;;;;;;;5.75;2.47;;;4.30;99.90;;;;;;5051772;28;20116;-54
2022/04/08 08:16:42;;;;;;;8.98;3.20;;;4.20;99.90;;;;;;5051778;28;20511;-52
2022/04/08 08:19:07;;;;;;;10.25;3.45;;;4.20;99.90;;;;;;5051913;28;20048;-54
2022/04/08 08:21:33;;;;;;;5.57;2.88;;;4.20;99.90;;;;;;5050003;28;20048;-51
2022/04/08 08:23:58;;;;;;;10.13;3.30;;;4.30;99.90;;;;;;5051700;28;20036;-53
2022/04/08 08:26:24;;;;;;;7.72;2.80;;;4.30;99.90;;;;;;5050679;28;20033;-51
2022/04/08 08:28:49;;;;;;;9.38;2.53;;;4.40;99.90;;;;;;5047817;28;20102;-53
2022/04/08 08:31:18;;;;;;;5.90;2.33;;;4.50;99.90;;;;;;5051475;28;20389;-53
2022/04/08 08:33:44;;;;;;;8.70;1.80;;;4.60;99.90;;;;;;5051550;28;20516;-53
2022/04/08 08:36:09;;;;;;;4.97;2.08;;;4.60;99.90;;;;;;5051465;28;20041;-53
2022/04/08 08:38:35;;;;;;;2.40;1.02;;;4.50;99.90;;;;;;5051653;28;20040;-52
2022/04/08 08:41:02;;;;;;;3.85;1.20;;;4.50;99.90;;;;;;5051736;28;20473;-52
2022/04/08 08:43:27;;;;;;;3.33;1.58;;;4.50;99.90;;;;;;5050511;28;20162;-52
2022/04/08 08:45:56;;;;;;;7.55;1.55;;;4.60;99.90;;;;;;5051329;28;20143;-53
2022/04/08 08:48:22;;;;;;;7.38;2.15;;;4.60;99.90;;;;;;5051545;28;20108;-51
2022/04/08 08:50:50;;;;;;;6.25;1.98;;;4.80;99.90;;;;;;5051663;28;20072;-55
2022/04/08 08:53:18;;;;;;;6.38;1.90;;;4.90;99.90;;;;;;5051688;28;20063;-54
2022/04/08 08:55:44;;;;;;;6.78;2.03;;;5.00;99.90;;;;;;5017171;28;20055;-51
2022/04/08 08:58:09;;;;;;;5.95;2.08;;;5.10;99.90;;;;;;5030938;28;20108;-52
2022/04/08 09:00:35;;;;;;;9.63;2.40;;;5.20;99.90;;;;;;5041528;28;20448;-50
2022/04/08 09:03:03;;;;;;;5.55;2.22;;;5.40;99.90;;;;;;5051547;28;20052;-53
2022/04/08 09:05:28;;;;;;;7.53;2.75;;;5.50;99.90;;;;;;5051248;28;20052;-54
2022/04/08 09:08:05;;;;;;;8.20;2.80;;;5.60;99.90;;;;;;5051196;28;20083;-50
2022/04/08 09:10:36;;;;;;;10.70;3.33;;;5.70;99.90;;;;;;5051311;28;20150;-54
2022/04/08 09:13:04;;;;;;;7.05;3.60;;;5.80;99.90;;;;;;5051512;28;20095;-50
2022/04/08 09:15:29;;;;;;;10.63;3.78;;;6.00;99.90;;;;;;5055420;28;20487;-50
2022/04/08 09:18:08;;;;;;;11.90;3.70;;;6.20;99.90;;;;;;5048517;28;20037;-51
2022/04/08 09:20:45;;;;;;;14.77;4.30;;;6.40;99.90;;;;;;5055020;28;20493;-50
2022/04/08 09:23:12;;;;;;;13.57;4.30;;;6.50;99.90;;;;;;5054986;28;20107;-50
2022/04/08 09:25:39;;;;;;;12.38;4.20;;;6.60;99.90;;;;;;5055265;28;20044;-50
2022/04/08 09:28:11;;;;;;;12.95;3.90;;;6.70;99.90;;;;;;5054554;28;20115;-50
2022/04/08 09:30:38;;;;;;;10.07;4.43;;;6.80;99.90;;;;;;5054981;28;20041;-53
2022/04/08 09:33:11;;;;;;;11.10;4.00;;;6.90;99.90;;;;;;5037212;28;20041;-50
2022/04/08 09:35:40;;;;;;;13.40;3.45;;;7.00;99.90;;;;;;5053781;28;20036;-50
2022/04/08 09:38:06;;;;;;;13.45;3.95;;;7.10;99.90;;;;;;5054708;28;20033;-50
2022/04/08 09:40:40;;;;;;;13.02;3.40;;;7.20;99.90;;;;;;5054840;28;20630;-50
2022/04/08 09:43:07;;;;;;;13.70;3.22;;;7.30;99.90;;;;;;5037089;28;20037;-51
2022/04/08 09:45:33;;;;;;;10.95;2.40;;;7.40;99.90;;;;;;5054641;28;20512;-50
2022/04/08 09:48:03;;;;;;;8.85;2.20;;;7.50;99.90;;;;;;5051188;28;20103;-50
2022/04/08 09:50:29;;;;;;;9.35;2.53;;;7.60;99.90;;;;;;5027587;28;20040;-50
2022/04/08 09:52:55;;;;;;;4.30;1.58;;;7.70;99.90;;;;;;5054815;28;20111;-51
2022/04/08 09:55:22;;;;;;;6.72;1.77;;;7.70;99.90;;;;;;5054618;28;20404;-50
2022/04/08 09:57:51;;;;;;;8.52;1.45;;;7.70;99.90;;;;;;5082480;22;20096;-53
2022/04/08 10:00:18;;;;;;;7.90;1.70;;;7.80;99.90;;;;;;5051376;28;20462;-50
2022/04/08 10:02:46;;;;;;;6.90;1.80;;;7.80;99.90;;;;;;5057740;28;20162;-53
2022/04/08 10:05:12;;;;;;;7.50;2.15;;;7.90;99.90;;;;;;5054337;28;20041;-52
2022/04/08 10:07:43;;;;;;;7.47;2.35;;;8.10;99.90;;;;;;5063896;28;20480;-52
2022/04/08 10:10:22;;;;;;;12.20;2.40;;;8.10;99.90;;;;;;5073962;28;20041;-53
2022/04/08 10:13:08;;;;;;;6.72;2.15;;;8.20;99.90;;;;;;5074214;28;20625;-53
2022/04/08 10:15:43;;;;;;;6.70;1.90;;;8.30;99.90;;;;;;5074325;28;20032;-52
2022/04/08 10:18:09;;;;;;;8.27;1.92;;;8.30;99.90;;;;;;5073068;28;20405;-53
2022/04/08 10:20:37;;;;;;;7.05;1.60;;;8.40;99.90;;;;;;5039294;28;20089;-52
2022/04/08 10:23:09;;;;;;;11.15;2.17;;;8.40;99.90;;;;;;5071992;28;20041;-53
2022/04/08 10:25:37;;;;;;;6.37;2.27;;;8.50;99.90;;;;;;5071365;28;20498;-53
2022/04/08 10:28:03;;;;;;;8.02;2.45;;;8.50;99.90;;;;;;5073627;28;20275;-53
2022/04/08 10:30:29;;;;;;;10.88;2.40;;;8.60;99.90;;;;;;5073813;28;20048;-53
2022/04/08 10:33:01;;;;;;;7.63;2.28;;;8.60;99.90;;;;;;5069572;28;20048;-52
2022/04/08 10:35:28;;;;;;;4.88;1.70;;;8.70;99.90;;;;;;5039202;28;20438;-53
2022/04/08 10:37:59;;;;;;;7.50;1.70;;;8.70;99.90;;;;;;5073440;28;20403;-53
2022/04/08 10:40:36;;;;;;;9.13;2.22;;;8.80;99.90;;;;;;5073373;28;20835;-54
2022/04/08 10:43:07;;;;;;;9.00;2.60;;;8.80;99.90;;;;;;5072814;28;20066;-53
2022/04/08 10:45:33;;;;;;;9.20;1.90;;;8.80;99.90;;;;;;5073534;28;20036;-51
2022/04/08 10:48:13;;;;;;;8.13;2.22;;;8.80;99.90;;;;;;5073266;28;20052;-53
2022/04/08 10:50:40;;;;;;;10.10;2.13;;;8.80;99.90;;;;;;5055461;28;20044;-52
2022/04/08 10:53:13;;;;;;;8.60;2.47;;;8.90;99.90;;;;;;5055686;28;20033;-52
2022/04/08 10:55:49;;;;;;;12.32;2.42;;;9.00;99.90;;;;;;5073456;28;20047;-53
2022/04/08 10:58:28;;;;;;;9.27;1.88;;;9.20;99.90;;;;;;5072841;28;20407;-54
2022/04/08 11:00:53;;;;;;;10.73;2.70;;;9.20;99.90;;;;;;5053090;28;20143;-54
2022/04/08 11:03:28;;;;;;;10.00;2.42;;;9.10;99.90;;;;;;5053072;28;20120;-54
2022/04/08 11:05:54;;;;;;;7.15;2.45;;;9.10;99.90;;;;;;5053184;28;20048;-54
2022/04/08 11:08:24;;;;;;;8.77;2.40;;;9.00;99.90;;;;;;5053163;28;20037;-54
2022/04/08 11:10:57;;;;;;;6.18;2.20;;;9.10;99.90;;;;;;5053120;28;20121;-53
2022/04/08 11:13:23;;;;;;;11.23;2.47;;;9.20;99.90;;;;;;5053012;28;20040;-54
2022/04/08 11:15:49;;;;;;;10.35;2.47;;;9.30;99.90;;;;;;5055903;28;20039;-53
2022/04/08 11:18:14;;;;;;;9.00;2.22;;;9.40;99.90;;;;;;5072576;28;20048;-54
2022/04/08 11:20:40;;;;;;;8.23;2.20;;;9.40;99.90;;;;;;5072794;28;20036;-52
2022/04/08 11:23:05;;;;;;;9.57;2.38;;;9.40;99.90;;;;;;5072932;28;20047;-53
2022/04/08 11:25:32;;;;;;;10.40;3.17;;;9.40;99.90;;;;;;5054721;28;20047;-53
2022/04/08 11:28:05;;;;;;;10.27;2.65;;;9.40;99.90;;;;;;5072261;28;20036;-54
2022/04/08 11:30:33;;;;;;;8.23;2.50;;;9.40;99.90;;;;;;5052855;28;20237;-54
2022/04/08 11:32:59;;;;;;;10.88;2.42;;;9.50;99.90;;;;;;5057208;28;20117;-52
2022/04/08 11:35:31;;;;;;;13.73;2.58;;;9.40;99.90;;;;;;5037796;28;20672;-53
2022/04/08 11:37:57;;;;;;;6.30;2.00;;;9.40;99.90;;;;;;5071804;28;20036;-54
2022/04/08 11:40:23;;;;;;;12.32;2.58;;;9.30;99.90;;;;;;5072320;28;20040;-53
2022/04/08 11:42:49;;;;;;;12.55;2.67;;;9.20;99.90;;;;;;5037669;28;20553;-55
2022/04/08 11:45:17;;;;;;;8.32;2.47;;;9.10;99.90;;;;;;5072597;28;20076;-54
2022/04/08 11:47:48;;;;;;;11.93;2.92;;;8.80;99.90;;;;;;5072140;28;20044;-54
2022/04/08 11:50:21;;;;;;;11.27;3.00;;;8.50;99.90;;;;;;5071262;28;20543;-52
2022/04/08 11:52:57;;;;;;;7.22;2.22;;;8.20;99.90;;;;;;5072267;28;20128;-50
2022/04/08 11:55:25;;;;;;;5.78;2.08;;;7.80;99.90;;;;;;5072055;28;20052;-51
2022/04/08 11:57:52;;;;;;;3.78;1.80;;;7.60;99.90;;;;;;5053933;28;20057;-51
2022/04/08 12:00:26;;;;;;;7.72;2.60;;;7.40;99.90;;;;;;5037586;28;20075;-52
2022/04/08 12:02:53;;;;;;;4.72;1.98;;;7.40;99.90;;;;;;5072447;28;20043;-54
2022/04/08 12:05:24;;;;;;;4.75;2.13;;;7.40;99.90;;;;;;5072096;28;20120;-50
2022/04/08 12:07:59;;;;;;;7.13;2.10;;;7.50;99.90;;;;;;5052814;28;20067;-54
2022/04/08 12:10:26;;;;;;;9.73;2.50;;;7.60;99.90;;;;;;5067240;28;20106;-53
2022/04/08 12:12:53;;;;;;;10.90;2.22;;;7.90;99.90;;;;;;5053554;28;20109;-52
2022/04/08 12:15:22;;;;;;;9.48;2.95;;;8.10;99.90;;;;;;5071726;28;20044;-50
2022/04/08 12:17:50;;;;;;;12.10;2.90;;;8.30;99.90;;;;;;5037072;28;20127;-54
2022/04/08 12:20:20;;;;;;;9.32;2.70;;;8.40;99.90;;;;;;5053639;28;20047;-51
2022/04/08 12:22:50;;;;;;;11.77;2.83;;;8.50;99.90;;;;;;5071863;28;20083;-54
2022/04/08 12:25:18;;;;;;;9.35;2.97;;;8.60;99.90;;;;;;5053316;28;20120;-54
2022/04/08 12:27:51;;;;;;;9.05;2.83;;;8.90;99.90;;;;;;5071391;28;20106;-52
2022/04/08 12:30:17;;;;;;;6.55;2.58;;;9.00;99.90;;;;;;5071576;28;20527;-52
2022/04/08 12:32:43;;;;;;;13.25;3.10;;;9.30;99.90;;;;;;5071559;28;20084;-53
2022/04/08 12:35:11;;;;;;;8.38;3.08;;;9.40;99.90;;;;;;5071638;28;20200;-54
2022/04/08 12:37:37;;;;;;;8.25;2.20;;;9.50;99.90;;;;;;5071413;28;20040;-54
2022/04/08 12:40:06;;;;;;;8.45;2.10;;;9.50;99.90;;;;;;5071747;28;20109;-54
2022/04/08 12:42:34;;;;;;;10.10;2.22;;;9.50;99.90;;;;;;5070750;28;20032;-54
2022/04/08 12:44:59;;;;;;;7.15;1.83;;;9.50;99.90;;;;;;5071385;28;20044;-54
2022/04/08 12:47:25;;;;;;;4.22;1.67;;;9.50;99.90;;;;;;5070730;28;20123;-54
2022/04/08 12:49:50;;;;;;;7.88;1.83;;;9.50;99.90;;;;;;5070914;28;20040;-54
2022/04/08 12:52:16;;;;;;;5.47;1.23;;;9.40;99.90;;;;;;5071775;28;20052;-54